Time;durP1;ratioP1;P1;durP2;ratioP2;P2;SDS_P1;SDS_P2;PMS_P1;PMS_P2;Temp;Humidity;BMP_temperature;BMP_pressure;BME280_temperature;BME280_humidity;BME280_pressure;Samples;Min_cycle;Max_cycle;Signal;HPM_P1;HPM_P2
2021/06/13 04:01:57;;;;;;;7.90;7.30;;;18.10;99.90;;;;;;5316968;23;20490;-62
2021/06/13 04:04:25;;;;;;;8.17;7.47;;;18.10;99.90;;;;;;4994291;28;20480;-62
2021/06/13 04:06:53;;;;;;;8.83;6.70;;;18.10;99.90;;;;;;4994431;28;20450;-62
2021/06/13 04:09:21;;;;;;;7.63;7.00;;;18.10;99.90;;;;;;4994365;28;20449;-62
2021/06/13 04:11:49;;;;;;;8.17;6.20;;;18.00;99.90;;;;;;4994460;28;20481;-62
2021/06/13 04:14:17;;;;;;;7.60;6.90;;;17.90;99.90;;;;;;4994353;28;20789;-62
2021/06/13 04:16:47;;;;;;;7.20;6.50;;;17.90;99.90;;;;;;4994966;28;20481;-62
2021/06/13 04:19:16;;;;;;;7.40;6.80;;;17.90;99.90;;;;;;4994410;28;20460;-62
2021/06/13 04:21:44;;;;;;;10.27;6.87;;;17.90;99.90;;;;;;4994353;28;20484;-62
2021/06/13 04:24:13;;;;;;;7.73;6.93;;;17.90;99.90;;;;;;4994232;28;20449;-62
2021/06/13 04:26:40;;;;;;;7.27;6.67;;;17.90;99.90;;;;;;4994314;28;20894;-62
2021/06/13 04:29:07;;;;;;;10.03;7.00;;;17.80;99.90;;;;;;4994329;28;20454;-62
2021/06/13 04:31:33;;;;;;;7.10;6.40;;;17.80;99.90;;;;;;4994031;28;20481;-62
2021/06/13 04:34:00;;;;;;;7.03;6.40;;;17.80;99.90;;;;;;4994051;28;20942;-62
2021/06/13 04:36:28;;;;;;;7.13;6.33;;;17.80;99.90;;;;;;4994480;28;20482;-62
2021/06/13 04:38:55;;;;;;;7.40;6.67;;;17.80;99.90;;;;;;4994493;28;20458;-62
2021/06/13 04:41:22;;;;;;;9.47;6.27;;;17.90;99.90;;;;;;5001798;28;20545;-62
2021/06/13 04:43:49;;;;;;;6.20;5.63;;;17.90;99.90;;;;;;5004904;28;20454;-62
2021/06/13 04:46:22;;;;;;;7.80;6.30;;;17.90;99.90;;;;;;5000923;28;20460;-62
2021/06/13 04:48:49;;;;;;;10.53;6.70;;;17.90;99.90;;;;;;4994305;28;20822;-62
2021/06/13 04:51:15;;;;;;;7.93;5.30;;;17.90;99.90;;;;;;4995006;28;20474;-62
2021/06/13 04:54:21;;;;;;;9.30;6.30;;;17.80;99.90;;;;;;4998117;28;20905;-62
2021/06/13 04:56:58;;;;;;;6.80;6.10;;;17.70;99.90;;;;;;4997773;28;20484;-62
2021/06/13 04:59:25;;;;;;;8.80;6.67;;;17.70;99.90;;;;;;4998304;28;20438;-62
2021/06/13 05:01:52;;;;;;;8.03;6.40;;;17.80;99.90;;;;;;4997738;28;20485;-63
2021/06/13 05:04:18;;;;;;;8.70;6.50;;;17.80;99.90;;;;;;4997866;28;20453;-63
2021/06/13 05:06:45;;;;;;;7.17;6.17;;;17.80;99.90;;;;;;4997413;28;20860;-63
2021/06/13 05:09:13;;;;;;;7.50;5.80;;;17.90;99.90;;;;;;4997813;28;20458;-64
2021/06/13 05:11:40;;;;;;;6.27;5.57;;;18.00;99.90;;;;;;4997510;28;20473;-63
2021/06/13 05:14:08;;;;;;;8.00;5.87;;;18.00;99.90;;;;;;4997974;28;20828;-62
2021/06/13 05:16:35;;;;;;;6.57;5.80;;;18.20;99.90;;;;;;4998146;28;20477;-61
2021/06/13 05:19:02;;;;;;;7.53;5.63;;;18.20;99.90;;;;;;4998139;28;20453;-62
2021/06/13 05:21:28;;;;;;;7.30;5.60;;;18.20;99.90;;;;;;4997967;28;20832;-62
2021/06/13 05:23:55;;;;;;;5.90;5.37;;;18.20;99.90;;;;;;4998375;28;20460;-63
2021/06/13 05:26:22;;;;;;;7.50;5.67;;;18.20;99.90;;;;;;4997241;28;20457;-63
2021/06/13 05:28:48;;;;;;;8.27;5.40;;;18.20;99.90;;;;;;4997474;28;20454;-63
2021/06/13 05:31:16;;;;;;;6.27;5.77;;;18.20;99.90;;;;;;4997486;28;20473;-63
2021/06/13 05:33:43;;;;;;;7.70;5.83;;;18.30;99.90;;;;;;4997798;28;20958;-63
2021/06/13 05:36:10;;;;;;;8.80;6.20;;;18.30;99.90;;;;;;4997248;28;20832;-62
2021/06/13 05:38:39;;;;;;;9.20;5.03;;;18.30;99.90;;;;;;4996793;28;20481;-62
2021/06/13 05:41:06;;;;;;;6.77;5.30;;;18.30;99.90;;;;;;4996609;28;20480;-63
2021/06/13 05:43:33;;;;;;;6.17;5.30;;;18.30;99.90;;;;;;4996706;28;20453;-63
2021/06/13 05:46:02;;;;;;;5.90;5.30;;;18.40;99.90;;;;;;4996552;28;20918;-63
2021/06/13 05:48:30;;;;;;;10.77;6.47;;;18.50;99.90;;;;;;4996277;28;20822;-62
2021/06/13 05:50:57;;;;;;;5.60;5.10;;;18.40;99.90;;;;;;4996501;28;20837;-62
2021/06/13 05:53:24;;;;;;;6.23;5.70;;;18.40;99.90;;;;;;4996177;28;20469;-62
2021/06/13 05:55:50;;;;;;;8.23;6.17;;;18.70;99.90;;;;;;4996459;28;20502;-62
2021/06/13 05:58:17;;;;;;;6.00;5.40;;;18.80;99.90;;;;;;4996186;28;20454;-61
2021/06/13 06:00:44;;;;;;;5.97;5.20;;;18.70;99.90;;;;;;4996469;28;20572;-62
2021/06/13 06:03:11;;;;;;;6.93;6.17;;;18.90;99.90;;;;;;4996146;28;20564;-62
2021/06/13 06:05:39;;;;;;;7.80;5.70;;;19.00;99.90;;;;;;4995972;28;20817;-62
2021/06/13 06:08:06;;;;;;;5.93;5.43;;;19.00;99.90;;;;;;4996370;28;20781;-62
2021/06/13 06:10:35;;;;;;;6.03;5.27;;;19.00;99.90;;;;;;4996160;28;20482;-62
2021/06/13 06:13:04;;;;;;;5.83;5.20;;;19.10;99.90;;;;;;4996061;28;20464;-62
2021/06/13 06:15:38;;;;;;;5.90;5.40;;;19.20;99.90;;;;;;4995911;28;20536;-62
2021/06/13 06:18:05;;;;;;;7.20;5.77;;;19.30;99.90;;;;;;4995731;28;20935;-62
2021/06/13 06:20:32;;;;;;;5.83;5.40;;;19.40;99.90;;;;;;4996446;28;20479;-62
2021/06/13 06:23:01;;;;;;;7.93;5.50;;;19.50;99.90;;;;;;4995938;28;20485;-63
2021/06/13 06:25:29;;;;;;;6.20;5.60;;;19.30;99.90;;;;;;4995545;28;20458;-62
2021/06/13 06:27:56;;;;;;;5.90;5.27;;;19.40;99.90;;;;;;4995846;28;20459;-62
2021/06/13 06:30:25;;;;;;;8.20;5.00;;;19.60;99.90;;;;;;4995737;28;20453;-63
2021/06/13 06:32:52;;;;;;;6.17;5.57;;;19.60;99.90;;;;;;4995813;28;20460;-63
2021/06/13 06:35:19;;;;;;;5.30;4.90;;;19.90;99.90;;;;;;4995619;28;20461;-63
2021/06/13 06:37:46;;;;;;;9.00;5.40;;;20.00;99.90;;;;;;4995345;28;20457;-62
2021/06/13 06:40:15;;;;;;;6.33;4.80;;;20.30;99.90;;;;;;4995597;28;20457;-62
2021/06/13 06:42:42;;;;;;;8.03;4.77;;;20.30;99.90;;;;;;4995669;28;20466;-63
2021/06/13 06:45:10;;;;;;;6.67;6.07;;;20.50;99.90;;;;;;4995477;28;20454;-63
2021/06/13 06:47:37;;;;;;;6.00;5.40;;;20.70;99.90;;;;;;4995585;28;20453;-62
2021/06/13 06:50:05;;;;;;;6.87;5.87;;;21.00;99.90;;;;;;4995446;28;20872;-62
2021/06/13 06:52:34;;;;;;;9.33;5.17;;;21.20;99.90;;;;;;4995318;28;20525;-62
2021/06/13 06:55:00;;;;;;;9.37;5.07;;;21.50;99.90;;;;;;4995411;28;20508;-63
2021/06/13 06:57:30;;;;;;;5.87;4.40;;;21.60;99.90;;;;;;4995291;28;20485;-62
2021/06/13 06:59:57;;;;;;;6.73;5.23;;;22.00;99.90;;;;;;4995222;28;20458;-63
2021/06/13 07:02:23;;;;;;;5.57;4.53;;;22.40;99.90;;;;;;4994908;28;21003;-62
2021/06/13 07:04:50;;;;;;;7.70;4.60;;;22.70;99.90;;;;;;4995606;28;20465;-63
2021/06/13 07:07:17;;;;;;;5.77;4.70;;;23.20;99.90;;;;;;4995189;28;20434;-63
2021/06/13 07:09:43;;;;;;;4.83;4.30;;;23.90;99.90;;;;;;4995179;28;20481;-63
2021/06/13 07:12:11;;;;;;;5.30;4.63;;;24.20;99.90;;;;;;4995127;28;20474;-64
2021/06/13 07:14:40;;;;;;;11.50;8.00;;;24.80;99.90;;;;;;4995031;28;20460;-63
2021/06/13 07:17:09;;;;;;;5.60;5.10;;;25.50;99.90;;;;;;4995513;28;20887;-63
2021/06/13 07:19:39;;;;;;;7.50;5.13;;;25.30;98.60;;;;;;4995271;28;20453;-63
2021/06/13 07:22:05;;;;;;;7.73;5.40;;;25.30;98.40;;;;;;4995170;28;20480;-63
2021/06/13 07:24:32;;;;;;;5.67;4.33;;;25.50;97.60;;;;;;4995010;28;20493;-64
2021/06/13 07:26:59;;;;;;;5.73;5.23;;;25.80;97.50;;;;;;4995126;28;20537;-64
2021/06/13 07:29:26;;;;;;;7.23;6.00;;;26.70;95.80;;;;;;4994681;28;20942;-62
2021/06/13 07:31:58;;;;;;;5.53;5.03;;;27.00;95.20;;;;;;4995680;28;20557;-63
2021/06/13 07:34:31;;;;;;;5.73;5.23;;;26.80;93.60;;;;;;4994766;28;20941;-64
2021/06/13 07:37:03;;;;;;;6.23;4.43;;;27.00;93.40;;;;;;4994552;28;20504;-64
2021/06/13 07:39:38;;;;;;;6.82;5.30;;;27.20;93.40;;;;;;4993667;28;20530;-64
2021/06/13 07:42:06;;;;;;;9.33;4.63;;;27.10;91.50;;;;;;4994165;28;20714;-64
2021/06/13 07:44:34;;;;;;;5.67;4.93;;;26.90;92.40;;;;;;4994179;28;20790;-64
2021/06/13 07:47:04;;;;;;;4.93;4.40;;;26.50;92.30;;;;;;4994587;28;20445;-63
2021/06/13 07:49:36;;;;;;;5.87;4.97;;;27.00;92.50;;;;;;4994200;28;20955;-64
2021/06/13 07:52:06;;;;;;;5.47;4.97;;;27.40;90.50;;;;;;4994434;28;20481;-63
2021/06/13 07:54:35;;;;;;;6.93;5.17;;;27.50;88.60;;;;;;4994576;28;20466;-64
2021/06/13 07:57:05;;;;;;;7.27;4.30;;;27.40;86.90;;;;;;4994116;28;20478;-64
2021/06/13 07:59:32;;;;;;;4.88;3.70;;;27.20;90.60;;;;;;4993723;28;20465;-63
2021/06/13 08:02:02;;;;;;;4.90;4.50;;;27.60;90.40;;;;;;4993709;28;20702;-63
2021/06/13 08:04:35;;;;;;;7.97;4.77;;;27.90;84.20;;;;;;4993894;28;20530;-63
2021/06/13 08:07:02;;;;;;;4.60;4.17;;;28.30;84.70;;;;;;4994446;28;20618;-63
2021/06/13 08:09:31;;;;;;;6.27;4.90;;;28.70;85.70;;;;;;4994302;28;20454;-63
2021/06/13 08:11:59;;;;;;;8.80;4.90;;;28.80;83.10;;;;;;4994398;28;20903;-63
2021/06/13 08:14:38;;;;;;;5.63;5.00;;;28.30;80.50;;;;;;4994009;28;20454;-63
2021/06/13 08:17:09;;;;;;;4.80;4.40;;;27.90;81.50;;;;;;4994057;28;20981;-63
2021/06/13 08:19:38;;;;;;;5.10;4.57;;;27.60;82.20;;;;;;4994506;28;20442;-63
2021/06/13 08:22:05;;;;;;;4.23;3.50;;;27.50;83.30;;;;;;4994133;28;20473;-63
2021/06/13 08:24:33;;;;;;;4.90;4.40;;;28.20;81.50;;;;;;4994397;28;20525;-64
2021/06/13 08:27:04;;;;;;;5.00;3.87;;;27.50;80.80;;;;;;4998797;28;20476;-63
2021/06/13 08:29:32;;;;;;;5.40;4.50;;;27.90;82.20;;;;;;4999124;28;20445;-63
2021/06/13 08:32:02;;;;;;;5.90;5.40;;;27.50;82.00;;;;;;4998329;28;20473;-63
2021/06/13 08:34:30;;;;;;;7.50;5.00;;;26.70;84.30;;;;;;4998176;28;20528;-62
2021/06/13 08:36:58;;;;;;;9.80;5.17;;;26.50;84.60;;;;;;4998090;28;20478;-62
2021/06/13 08:39:31;;;;;;;4.50;4.20;;;26.70;82.50;;;;;;4998390;28;20457;-62
2021/06/13 08:42:00;;;;;;;5.70;5.00;;;26.00;82.30;;;;;;4997666;28;20556;-62
2021/06/13 08:44:29;;;;;;;4.93;4.37;;;26.50;86.80;;;;;;4998071;28;20504;-63
2021/06/13 08:46:59;;;;;;;7.87;4.77;;;26.40;84.10;;;;;;4997610;28;20540;-62
2021/06/13 08:49:26;;;;;;;4.93;4.60;;;26.40;85.50;;;;;;4997788;28;20453;-64
2021/06/13 08:51:55;;;;;;;6.80;4.47;;;27.00;82.10;;;;;;4997709;28;20477;-64
2021/06/13 08:54:30;;;;;;;6.30;4.40;;;27.00;81.60;;;;;;4997898;28;20479;-63
2021/06/13 08:56:57;;;;;;;4.37;4.00;;;28.00;82.20;;;;;;4997504;28;20465;-63
2021/06/13 08:59:28;;;;;;;4.30;3.90;;;28.90;75.90;;;;;;4997595;28;20501;-63
2021/06/13 09:01:54;;;;;;;5.10;4.50;;;29.40;78.10;;;;;;4997410;28;20509;-63
2021/06/13 09:04:27;;;;;;;5.07;4.43;;;30.10;77.20;;;;;;4998746;28;20531;-63
2021/06/13 09:06:56;;;;;;;5.93;4.30;;;30.20;76.10;;;;;;4998260;28;20862;-63
2021/06/13 09:09:29;;;;;;;4.30;3.87;;;31.10;73.00;;;;;;4998440;28;20459;-63
2021/06/13 09:12:05;;;;;;;5.00;4.10;;;31.60;68.40;;;;;;4998431;28;20470;-63
2021/06/13 09:14:38;;;;;;;8.67;4.63;;;31.90;67.00;;;;;;4997825;28;20919;-63
2021/06/13 09:17:21;;;;;;;4.77;4.27;;;31.50;66.50;;;;;;4997265;28;20481;-63
2021/06/13 09:20:13;;;;;;;4.77;4.27;;;31.50;66.90;;;;;;4998170;28;20528;-64
2021/06/13 09:23:09;;;;;;;6.30;4.70;;;30.90;66.30;;;;;;4997768;28;20516;-63
2021/06/13 09:25:41;;;;;;;4.30;4.00;;;30.80;62.90;;;;;;4996999;28;20465;-62
2021/06/13 09:28:12;;;;;;;4.87;3.77;;;30.80;66.10;;;;;;4997298;28;20501;-64
2021/06/13 09:30:44;;;;;;;5.33;4.20;;;30.70;68.50;;;;;;4996611;28;20509;-64
2021/06/13 09:33:16;;;;;;;3.93;3.60;;;30.80;62.80;;;;;;4997211;28;20873;-64
2021/06/13 09:35:45;;;;;;;6.80;4.10;;;30.90;63.40;;;;;;4996821;28;20449;-63
2021/06/13 09:38:20;;;;;;;5.27;4.13;;;30.20;64.30;;;;;;4995757;28;20531;-63
2021/06/13 09:40:53;;;;;;;4.00;3.70;;;29.70;66.00;;;;;;4996982;28;20480;-63
2021/06/13 09:43:29;;;;;;;4.33;3.93;;;30.30;65.10;;;;;;4996717;28;20837;-64
2021/06/13 09:46:07;;;;;;;4.47;4.07;;;30.40;66.50;;;;;;4996776;28;20992;-64
2021/06/13 09:48:36;;;;;;;3.97;3.63;;;30.70;64.50;;;;;;4996943;28;20438;-63
2021/06/13 09:51:05;;;;;;;4.00;3.60;;;31.00;69.40;;;;;;4996849;28;20550;-62
2021/06/13 09:53:43;;;;;;;4.60;3.60;;;31.30;62.80;;;;;;4996732;28;20564;-64
2021/06/13 09:56:24;;;;;;;4.10;3.70;;;31.80;64.00;;;;;;4997029;28;20807;-63
2021/06/13 09:59:01;;;;;;;4.30;3.50;;;32.10;63.00;;;;;;4997478;28;20512;-63
2021/06/13 10:01:35;;;;;;;5.00;3.63;;;32.60;60.90;;;;;;4997249;28;20638;-62
2021/06/13 10:04:06;;;;;;;6.00;3.50;;;32.00;59.40;;;;;;4997831;28;20438;-61
2021/06/13 10:06:36;;;;;;;8.17;4.03;;;31.90;60.10;;;;;;4997866;28;20460;-62
2021/06/13 10:09:10;;;;;;;4.10;3.70;;;31.50;61.30;;;;;;4998309;28;20465;-62
2021/06/13 10:11:40;;;;;;;3.97;3.33;;;31.20;62.00;;;;;;4997986;28;20465;-63
2021/06/13 10:14:14;;;;;;;4.07;3.77;;;30.70;59.50;;;;;;4999215;28;20490;-63
2021/06/13 10:16:47;;;;;;;6.10;3.87;;;31.00;62.70;;;;;;4997758;28;20465;-63
2021/06/13 10:19:15;;;;;;;6.10;4.17;;;30.90;63.30;;;;;;4996111;28;20477;-63
2021/06/13 10:21:52;;;;;;;4.20;3.13;;;31.00;66.70;;;;;;4996148;28;20548;-63
2021/06/13 10:24:22;;;;;;;3.97;3.77;;;31.00;62.40;;;;;;4996187;28;20449;-64
2021/06/13 10:26:51;;;;;;;4.37;3.90;;;30.90;60.50;;;;;;4996509;28;20454;-63
2021/06/13 10:29:19;;;;;;;3.50;3.20;;;30.20;62.20;;;;;;4996084;28;20457;-63
2021/06/13 10:31:51;;;;;;;3.37;3.07;;;30.30;64.70;;;;;;4995953;28;20544;-63
2021/06/13 10:34:21;;;;;;;3.47;3.20;;;29.90;61.20;;;;;;4995996;28;20923;-63
2021/06/13 10:36:48;;;;;;;3.60;3.30;;;30.30;60.80;;;;;;4995895;28;20885;-63
2021/06/13 10:39:17;;;;;;;5.43;3.40;;;30.10;63.20;;;;;;4995910;28;20458;-62
2021/06/13 10:41:56;;;;;;;3.93;3.63;;;30.40;63.30;;;;;;4996409;28;20820;-63
2021/06/13 10:44:27;;;;;;;5.03;3.20;;;30.80;60.00;;;;;;4996890;28;20442;-63
2021/06/13 10:46:59;;;;;;;3.67;3.10;;;31.00;63.80;;;;;;4996598;28;20919;-63
2021/06/13 10:49:37;;;;;;;4.60;3.57;;;31.40;58.90;;;;;;4996528;28;20446;-63
2021/06/13 10:52:19;;;;;;;3.20;2.90;;;31.20;58.80;;;;;;4996075;28;20979;-63
2021/06/13 10:55:02;;;;;;;3.30;3.00;;;31.00;60.10;;;;;;4996328;28;20437;-64
2021/06/13 10:57:38;;;;;;;3.17;2.87;;;31.20;59.40;;;;;;4995632;28;20553;-63
2021/06/13 11:00:38;;;;;;;2.93;2.73;;;31.20;59.90;;;;;;4996256;28;20434;-63
2021/06/13 11:03:05;;;;;;;5.33;3.50;;;30.80;58.50;;;;;;4996193;28;20492;-63
2021/06/13 11:05:46;;;;;;;4.77;3.10;;;31.10;64.20;;;;;;4995704;28;20884;-63
2021/06/13 11:08:26;;;;;;;3.47;2.87;;;30.60;57.60;;;;;;4995440;28;20438;-63
2021/06/13 11:10:55;;;;;;;3.33;2.90;;;30.80;60.20;;;;;;4995192;28;20557;-63
2021/06/13 11:13:31;;;;;;;4.60;3.30;;;31.00;59.80;;;;;;4995029;28;20532;-63
2021/06/13 11:16:13;;;;;;;3.17;2.87;;;30.40;56.30;;;;;;4995339;28;20446;-63
2021/06/13 11:18:44;;;;;;;3.83;3.40;;;30.20;59.20;;;;;;4995118;28;20462;-63
2021/06/13 11:21:22;;;;;;;3.63;3.43;;;30.30;61.40;;;;;;4994732;28;20473;-63
2021/06/13 11:23:55;;;;;;;3.40;3.10;;;30.40;61.60;;;;;;4994888;28;20493;-64
2021/06/13 11:26:39;;;;;;;5.47;3.37;;;30.50;61.90;;;;;;4995003;28;20503;-63
2021/06/13 11:29:12;;;;;;;2.97;2.73;;;30.40;60.90;;;;;;4995229;28;20507;-63
2021/06/13 11:31:51;;;;;;;5.30;3.33;;;30.40;62.50;;;;;;4994764;28;20474;-63
2021/06/13 11:34:23;;;;;;;3.57;3.07;;;29.40;60.50;;;;;;4994799;28;20441;-64
2021/06/13 11:36:51;;;;;;;3.90;3.07;;;29.10;66.10;;;;;;4994998;28;20450;-63
2021/06/13 11:39:22;;;;;;;7.43;3.37;;;29.00;66.90;;;;;;4994678;28;20450;-64
2021/06/13 11:41:55;;;;;;;3.33;3.00;;;29.10;65.70;;;;;;4994464;28;20552;-63
2021/06/13 11:44:43;;;;;;;3.70;3.40;;;29.30;65.80;;;;;;4994769;28;20481;-63
2021/06/13 11:47:33;;;;;;;3.03;2.70;;;28.30;65.20;;;;;;4994813;28;20438;-63
2021/06/13 11:50:11;;;;;;;3.47;3.20;;;27.90;68.40;;;;;;4994643;28;20477;-63
2021/06/13 11:53:11;;;;;;;4.20;3.20;;;27.70;68.80;;;;;;4995171;28;20477;-63
2021/06/13 11:56:07;;;;;;;3.70;3.33;;;27.80;69.00;;;;;;4994695;28;20452;-63
2021/06/13 11:58:39;;;;;;;4.93;2.83;;;28.10;66.50;;;;;;4994257;28;20557;-63
2021/06/13 12:01:07;;;;;;;3.30;3.10;;;28.20;69.90;;;;;;4993644;28;20488;-63
2021/06/13 12:03:39;;;;;;;5.90;3.20;;;28.20;70.80;;;;;;4994621;28;20457;-63
2021/06/13 12:06:15;;;;;;;3.53;3.23;;;28.30;68.10;;;;;;4994483;28;20932;-63
2021/06/13 12:08:45;;;;;;;3.70;2.90;;;28.10;69.80;;;;;;4994356;28;20479;-63
2021/06/13 12:11:40;;;;;;;4.30;3.20;;;28.30;66.50;;;;;;4994191;28;20524;-64
2021/06/13 12:14:28;;;;;;;3.93;3.13;;;27.70;65.90;;;;;;4993991;28;20442;-63
2021/06/13 12:16:59;;;;;;;3.83;3.53;;;27.60;67.00;;;;;;4994476;28;20852;-63
2021/06/13 12:19:35;;;;;;;5.27;2.70;;;28.10;69.70;;;;;;4994090;28;20880;-63
2021/06/13 12:22:25;;;;;;;2.90;2.80;;;28.10;66.80;;;;;;4994473;28;21011;-63
2021/06/13 12:27:39;;;;;;;3.07;2.77;;;28.00;66.30;;;;;;4994318;28;20782;-63
2021/06/13 12:30:13;;;;;;;3.00;2.80;;;28.00;61.50;;;;;;4994136;28;20969;-63
2021/06/13 12:32:52;;;;;;;4.40;3.13;;;28.20;65.00;;;;;;4994341;28;20446;-63
2021/06/13 12:35:21;;;;;;;3.17;2.87;;;27.90;66.00;;;;;;4994221;28;20441;-63
2021/06/13 12:37:59;;;;;;;4.60;2.40;;;28.00;67.30;;;;;;4994126;28;20998;-64
2021/06/13 12:40:29;;;;;;;3.87;3.23;;;28.20;62.70;;;;;;4994626;28;20520;-63
2021/06/13 12:42:56;;;;;;;4.67;3.37;;;28.40;67.70;;;;;;4994788;28;20808;-63
2021/06/13 12:45:24;;;;;;;2.20;2.00;;;28.20;66.80;;;;;;4994530;28;20525;-63
2021/06/13 12:47:58;;;;;;;2.13;2.03;;;28.30;62.90;;;;;;4994141;28;20450;-63
2021/06/13 12:50:27;;;;;;;2.90;2.70;;;28.10;60.40;;;;;;4993839;28;20500;-63
2021/06/13 12:52:57;;;;;;;6.83;2.67;;;28.20;59.20;;;;;;4994152;28;20453;-63
2021/06/13 12:55:25;;;;;;;3.10;2.80;;;28.40;61.60;;;;;;4993960;28;20982;-62
2021/06/13 12:57:53;;;;;;;5.10;2.50;;;28.60;63.70;;;;;;4993951;28;20577;-62
2021/06/13 13:00:22;;;;;;;2.43;2.30;;;28.70;60.80;;;;;;4993459;28;20453;-63
2021/06/13 13:03:08;;;;;;;3.93;2.57;;;28.30;58.00;;;;;;4994267;28;20853;-62
2021/06/13 13:05:35;;;;;;;10.00;3.70;;;28.10;62.80;;;;;;4994202;28;20461;-63
2021/06/13 13:08:18;;;;;;;4.63;2.57;;;28.00;64.00;;;;;;4993744;28;20507;-62
2021/06/13 13:11:02;;;;;;;4.27;2.37;;;28.10;61.50;;;;;;4993941;28;20495;-63
2021/06/13 13:13:30;;;;;;;2.40;2.23;;;28.10;58.90;;;;;;4996058;28;20492;-63
2021/06/13 13:16:02;;;;;;;2.37;2.17;;;28.30;57.80;;;;;;4997502;28;20575;-63
2021/06/13 13:18:39;;;;;;;3.27;2.00;;;28.00;58.40;;;;;;4997495;28;20465;-63
2021/06/13 13:21:06;;;;;;;2.57;2.00;;;28.10;59.10;;;;;;4997336;28;20473;-63
2021/06/13 13:23:40;;;;;;;2.67;1.97;;;28.20;61.20;;;;;;4997319;28;20464;-63
2021/06/13 13:26:07;;;;;;;2.50;2.03;;;28.20;57.70;;;;;;4997285;28;20476;-63
2021/06/13 13:28:36;;;;;;;2.23;2.10;;;28.30;58.90;;;;;;4996866;28;20485;-63
2021/06/13 13:31:16;;;;;;;6.70;2.10;;;28.30;57.30;;;;;;4996838;28;20971;-63
2021/06/13 13:33:52;;;;;;;2.13;1.97;;;28.00;58.10;;;;;;4997345;28;20444;-62
2021/06/13 13:36:30;;;;;;;2.77;1.90;;;28.20;56.70;;;;;;4996842;28;20442;-62
2021/06/13 13:39:02;;;;;;;4.03;2.10;;;28.20;56.10;;;;;;4997102;28;20529;-64
2021/06/13 13:41:39;;;;;;;1.90;1.80;;;28.40;57.40;;;;;;4997109;28;20520;-64
2021/06/13 13:44:08;;;;;;;3.37;2.03;;;28.40;57.20;;;;;;4997061;28;20457;-61
2021/06/13 13:46:37;;;;;;;2.80;1.83;;;28.40;55.10;;;;;;4997130;28;20457;-61
2021/06/13 13:49:08;;;;;;;2.43;1.60;;;28.30;52.30;;;;;;4997122;28;20488;-63
2021/06/13 13:51:50;;;;;;;2.00;1.80;;;28.20;59.00;;;;;;4996862;28;20842;-62
2021/06/13 13:54:30;;;;;;;1.80;1.70;;;27.90;55.10;;;;;;4997033;28;20457;-62
2021/06/13 13:56:59;;;;;;;2.20;2.03;;;28.20;57.70;;;;;;4997079;28;20528;-64
2021/06/13 13:59:34;;;;;;;2.20;1.90;;;28.40;56.00;;;;;;4996526;28;20994;-62
2021/06/13 14:02:04;;;;;;;2.67;2.13;;;28.50;54.50;;;;;;4996254;28;20485;-62
2021/06/13 14:04:34;;;;;;;2.00;1.90;;;28.50;52.90;;;;;;4996671;28;20458;-62
2021/06/13 14:07:03;;;;;;;2.23;2.00;;;28.40;51.40;;;;;;4996483;28;20492;-63
2021/06/13 14:09:33;;;;;;;2.33;2.13;;;28.60;53.60;;;;;;4996552;28;21021;-64
2021/06/13 14:12:06;;;;;;;2.40;1.80;;;28.70;53.20;;;;;;4995903;28;21029;-64
2021/06/13 14:14:33;;;;;;;1.80;1.40;;;28.70;51.70;;;;;;4996406;28;20442;-64
2021/06/13 14:17:07;;;;;;;3.57;2.07;;;28.90;53.70;;;;;;4997275;28;20454;-64
2021/06/13 14:19:37;;;;;;;2.37;2.17;;;29.00;54.40;;;;;;4996257;28;20539;-64
2021/06/13 14:22:05;;;;;;;3.53;2.10;;;29.00;53.40;;;;;;4996634;28;20565;-64
2021/06/13 14:24:32;;;;;;;2.27;2.13;;;28.80;53.90;;;;;;4996378;28;20457;-64
2021/06/13 14:27:00;;;;;;;2.23;2.03;;;28.80;54.40;;;;;;4996372;28;20548;-64
2021/06/13 14:29:29;;;;;;;2.10;2.00;;;28.60;55.20;;;;;;4996267;28;20460;-64
2021/06/13 14:31:56;;;;;;;2.07;1.97;;;28.60;57.40;;;;;;4996533;28;20641;-64
2021/06/13 14:34:23;;;;;;;3.03;2.10;;;28.70;55.70;;;;;;4996730;28;20464;-64
2021/06/13 14:36:57;;;;;;;2.10;1.90;;;28.80;55.90;;;;;;4999221;28;20466;-64
2021/06/13 14:39:23;;;;;;;3.50;2.47;;;28.70;53.30;;;;;;5004100;28;20461;-64
2021/06/13 14:44:36;;;;;;;2.30;1.87;;;28.80;55.20;;;;;;5002950;28;20449;-64
2021/06/13 14:47:08;;;;;;;2.40;2.20;;;28.60;54.10;;;;;;5004427;28;20476;-64
2021/06/13 14:49:36;;;;;;;2.60;2.40;;;28.70;55.10;;;;;;5004014;28;20461;-64
2021/06/13 14:52:06;;;;;;;2.17;2.07;;;28.80;54.30;;;;;;5005479;28;20478;-64
2021/06/13 14:54:36;;;;;;;1.87;1.77;;;28.70;57.30;;;;;;5005451;28;20481;-63
2021/06/13 14:57:03;;;;;;;3.77;2.00;;;28.60;55.50;;;;;;5006097;28;20449;-63
2021/06/13 14:59:31;;;;;;;3.10;2.33;;;28.50;56.90;;;;;;5004414;28;20496;-63
2021/06/13 15:02:03;;;;;;;2.10;2.00;;;28.50;56.20;;;;;;5008965;28;20481;-63
2021/06/13 15:04:35;;;;;;;1.80;1.70;;;28.60;57.40;;;;;;5012925;28;20434;-62
2021/06/13 15:07:04;;;;;;;2.47;2.27;;;28.10;56.50;;;;;;5011186;28;20438;-62
2021/06/13 15:09:35;;;;;;;2.60;2.00;;;28.10;56.00;;;;;;5010709;28;20446;-62
2021/06/13 15:12:03;;;;;;;2.60;2.40;;;27.90;59.00;;;;;;5009873;28;20477;-63
2021/06/13 15:14:32;;;;;;;2.53;2.43;;;28.00;59.40;;;;;;5010722;28;20457;-63
2021/06/13 15:17:02;;;;;;;2.97;2.37;;;27.90;59.40;;;;;;5008992;28;20449;-62
2021/06/13 15:19:29;;;;;;;3.13;2.20;;;27.90;58.90;;;;;;4997907;28;20815;-62
2021/06/13 15:21:57;;;;;;;2.50;2.30;;;28.10;59.60;;;;;;5006968;28;20477;-63
2021/06/13 15:24:24;;;;;;;3.07;2.40;;;28.20;59.60;;;;;;5001641;28;20508;-62
2021/06/13 15:26:52;;;;;;;2.20;2.10;;;28.20;56.80;;;;;;4995988;28;20517;-63
2021/06/13 15:29:20;;;;;;;2.60;2.50;;;28.00;56.40;;;;;;4996248;28;20496;-63
2021/06/13 15:31:47;;;;;;;2.07;1.97;;;28.10;56.50;;;;;;4995694;28;20478;-63
2021/06/13 15:34:17;;;;;;;2.30;2.10;;;28.00;58.80;;;;;;4995259;28;20459;-63
2021/06/13 15:36:48;;;;;;;2.37;2.20;;;27.70;54.90;;;;;;4994390;28;20453;-62
2021/06/13 15:39:19;;;;;;;4.90;2.70;;;27.50;56.90;;;;;;4995053;28;20466;-63
2021/06/13 15:41:49;;;;;;;2.33;2.20;;;27.70;56.70;;;;;;4995422;28;20501;-62
2021/06/13 15:44:22;;;;;;;2.37;2.13;;;27.90;57.70;;;;;;4994948;28;20457;-62
2021/06/13 15:46:56;;;;;;;2.37;2.17;;;27.70;56.40;;;;;;4994800;28;20834;-63
2021/06/13 15:49:25;;;;;;;3.90;2.47;;;27.90;58.10;;;;;;4995020;28;20461;-63
2021/06/13 15:51:52;;;;;;;2.50;2.30;;;27.70;56.80;;;;;;4994950;28;20516;-62
2021/06/13 15:54:34;;;;;;;2.10;2.00;;;27.70;55.60;;;;;;4994999;28;20454;-63
2021/06/13 15:57:05;;;;;;;2.47;2.27;;;27.50;56.40;;;;;;4995027;28;20545;-62
2021/06/13 15:59:38;;;;;;;2.00;1.80;;;27.40;56.50;;;;;;4995014;28;20466;-63
2021/06/13 16:02:12;;;;;;;2.00;1.90;;;27.20;57.10;;;;;;4994176;28;20571;-62
2021/06/13 16:04:42;;;;;;;2.50;2.10;;;27.20;57.10;;;;;;4995192;28;20792;-63
2021/06/13 16:07:12;;;;;;;3.37;2.10;;;27.10;57.70;;;;;;4994389;28;20938;-63
2021/06/13 16:09:43;;;;;;;2.87;2.37;;;27.30;57.30;;;;;;4994644;28;20434;-63
2021/06/13 16:12:20;;;;;;;2.30;2.20;;;27.10;55.80;;;;;;4994855;28;20903;-65
2021/06/13 16:14:48;;;;;;;2.30;2.00;;;27.30;56.40;;;;;;4994568;28;20918;-62
2021/06/13 16:17:29;;;;;;;2.80;2.60;;;27.40;57.10;;;;;;4994128;28;20526;-64
2021/06/13 16:20:01;;;;;;;2.30;2.20;;;27.40;56.00;;;;;;4994320;28;20819;-63
2021/06/13 16:22:28;;;;;;;2.30;2.10;;;26.90;56.70;;;;;;4995591;28;20543;-62
2021/06/13 16:25:02;;;;;;;2.10;2.00;;;27.10;56.30;;;;;;4995361;28;20449;-62
2021/06/13 16:27:29;;;;;;;2.10;2.00;;;27.00;55.40;;;;;;4994511;28;20529;-65
2021/06/13 16:30:02;;;;;;;2.83;2.20;;;27.00;55.40;;;;;;4994989;28;20458;-62
2021/06/13 16:32:31;;;;;;;2.73;1.97;;;27.00;57.10;;;;;;4995029;28;21014;-63
2021/06/13 16:35:05;;;;;;;2.50;2.30;;;27.10;56.20;;;;;;4994424;28;20458;-63
2021/06/13 16:37:34;;;;;;;2.33;2.10;;;27.00;56.10;;;;;;4994741;28;20474;-63
2021/06/13 16:40:03;;;;;;;1.90;1.80;;;26.90;55.40;;;;;;4994245;28;20890;-63
2021/06/13 16:42:30;;;;;;;6.60;2.47;;;27.00;55.30;;;;;;4994930;28;20473;-64
2021/06/13 16:45:01;;;;;;;1.90;1.80;;;27.00;56.00;;;;;;4994531;28;20458;-64
2021/06/13 16:47:28;;;;;;;2.73;2.47;;;26.80;54.80;;;;;;4995760;28;20832;-63
2021/06/13 16:49:55;;;;;;;2.17;2.07;;;26.80;56.10;;;;;;4998012;28;20464;-63
2021/06/13 16:52:26;;;;;;;2.10;2.00;;;26.70;56.00;;;;;;4998720;28;20488;-63
2021/06/13 16:54:57;;;;;;;2.70;2.30;;;26.50;55.60;;;;;;4997900;28;20445;-62
2021/06/13 16:57:29;;;;;;;2.83;2.60;;;26.60;56.90;;;;;;4997932;28;20438;-62
2021/06/13 17:00:03;;;;;;;2.67;2.47;;;26.30;60.80;;;;;;4997924;28;20990;-62
2021/06/13 17:02:29;;;;;;;2.63;2.50;;;26.40;59.60;;;;;;4997232;28;20485;-61
2021/06/13 17:04:57;;;;;;;3.30;2.50;;;26.50;60.00;;;;;;4997721;28;20468;-62
2021/06/13 17:07:29;;;;;;;2.40;2.20;;;26.40;58.10;;;;;;4997420;28;20480;-62
2021/06/13 17:09:59;;;;;;;2.90;2.70;;;26.40;58.50;;;;;;4997735;28;20532;-62
2021/06/13 17:15:26;;;;;;;2.90;2.70;;;26.10;58.30;;;;;;4995165;28;20434;-62